Beacon packets - map view · info · telemetry · weather · raw · status · beacons · messages · bulletins · browse · moving · my account
Originating callsign:
Show:

Loading beacon packets...

APRS beacon packets are stored for 14 days. It is possible to search using wildcards (*?) after a prefix.

2019-09-18 14:28:10 EDT: K9APR>ID: K9APR/R
2019-09-18 14:28:10 EDT: WB2ZII-14>ID: WB2ZII-14/R RELAY/R TRACE/R WIDE1-1/R TRACE1-1/R
2019-09-18 14:28:12 EDT: VA3HAL>UIDIGI: UIDIGI 1.9
2019-09-18 14:28:16 EDT: N0UEA>BEACON: N0UEA's APRS Digi near Warsaw MO. email n0uea@arrl.net
2019-09-18 14:28:16 EDT: DISABL>ID: Network Node
2019-09-18 14:28:17 EDT: YO8DHA-10>BEACON: *** APRS I-Gate Vaslui - Romania - KN36SO ***
2019-09-18 14:28:36 EDT: MB7UD>BEACON: G&C RAYNET APRS Digi MB7UD
2019-09-18 14:28:37 EDT: KA9BAB-11>UIDIGI: UIDIGI 1.9
2019-09-18 14:28:40 EDT: ED7ZAD-3>BEACON: W2-2 /ESAN2-2 /Port-1/Via DIGI CORDOBA
2019-09-18 14:28:40 EDT: NE4SC-12>ID: NE4SC-12/R NE4SC-1/B
2019-09-18 14:28:16 EDT: YC1LZ-2>BEACON: APRS DIGIPEATER BNPB, TANGKUBAN PRAHU MOUNTAIN WEST JAVA
2019-09-18 14:28:16 EDT: OK1ALX-12>ID: OK1ALX/R
2019-09-18 14:28:17 EDT: EA8ADH-6>UIDIGI: UIDIGI 1.9
2019-09-18 14:28:25 EDT: SR2NDA>UIDIGI: UIDIGI 1.9
2019-09-18 14:28:26 EDT: VK3ZR>BEACON: WICEN Digipeater, Box Hill South
2019-09-18 14:28:32 EDT: LD7ST>UIDIGI: UIDIGI 1.9
2019-09-18 14:28:32 EDT: KJ3LR-10>BEACON: https://www.qrz.com/db/KJ3LR
2019-09-18 14:28:35 EDT: WX5II-10>ID: NORTH SAT
2019-09-18 14:28:36 EDT: DB0UAL>ID: DB0UAL * X-NET-DIGI * -9k6 Shift
2019-09-18 14:28:41 EDT: IR6AF>UIDIGI: UIDIGI*1.9
2019-09-18 14:28:42 EDT: KQ1L-2>UIDIGI: UIDIGI 1.9
2019-09-18 14:28:43 EDT: HK3LR-5>ID: HK3LR-5/R SOTE/B SOTE-7/N
2019-09-18 14:28:45 EDT: KD0MC-2>UIDIGI: UIDIGI 1.9
2019-09-18 14:28:49 EDT: N9QIP-11>UIDIGI: UIDIGI 1.9
2019-09-18 14:28:52 EDT: W0GN-1>UIDIGI: UIDIGI 1.9
2019-09-18 14:28:54 EDT: WB5LJZ-5>ID: DEVINE,TX/ MEDINA Co./ EL09ME
2019-09-18 14:28:56 EDT: 9A3XK>BEACON: CRLNet.108 - SysOp 9a3XK & 9a7kxp-Internet via DJWIRELES http://djw.hr/
2019-09-18 14:29:02 EDT: VA3RVH-10>BEACON: Winlink 2000 RMS Packet Server
2019-09-18 14:29:02 EDT: WX9WL-15>BEACON: BTEXT WX9WL Lee County APRS Digipeater Amboy, IL
2019-09-18 14:29:04 EDT: WHTNY>BEACON: KD5DMT-5 APRS Digipeater
2019-09-18 14:28:47 EDT: WB2SNN-15>ID: WB2SNN-15/R WB2SNN-1/B
2019-09-18 14:28:49 EDT: KB3SVY-2>CQ: WEST VINCENT TWP EOC
2019-09-18 14:28:50 EDT: ES2ADF-5>BEACON: http://pauhh.planet.ee/adf
2019-09-18 14:28:50 EDT: W5DCR-3>BEACON: W5DCR-YSF*111111z3247.07N/09647.48WrW5DCR 146.960 pl 110.9 -0.6
2019-09-18 14:28:51 EDT: KF6RAL-4>BEACON: NOAA/NWS Nexrad digi Blowhard Mtn
2019-09-18 14:28:52 EDT: W2RGI-1>UIDIGI: UIDIGI 1.9
2019-09-18 14:28:55 EDT: W6PKT-4>BEACON: Pratt Mtn,Garberville, Please Google "NORCAL APRS" for latest settings
2019-09-18 14:29:06 EDT: IW3RHL>BEACON: Trx FT-23R PWR-5W Ant.Vert.1/4 90m slm
2019-09-18 14:29:11 EDT: IR2BZ>BEACON: CRLNet.010 - SysOp IZ2FTR - Tullio - iz2ftr@crlnet.it
2019-09-18 14:29:12 EDT: N0PBA-1>UIDIGI: UIDIGI 1.9
2019-09-18 14:29:04 EDT: IR3DV-10>BEACON: Dolomites Radio Club Igate Ost www.drc.bz
2019-09-18 14:29:06 EDT: 9A3XK>BEACON: Power 9W Gain 3dB Height 240m Ant omni
2019-09-18 14:29:09 EDT: F1ZCP-3>ID: >DIGINED: Gat 144.8<=>439.7 09 ORGIBET JN02LW
2019-09-18 14:29:10 EDT: HK3LR-5>BEACON: SYSOP hk3pqi@lcra.org.co
2019-09-18 14:29:14 EDT: K8QIK-7>ID: Network node (LANSW2)
2019-09-18 14:29:14 EDT: MB7UW>ID: MB7UW/R CRAB/D
2019-09-18 14:29:14 EDT: VA3OPS>UIDIGI: UIDIGI 1.9
2019-09-18 14:29:15 EDT: STULSA>ID: STULSA/R STULSA-1/B STULSA-7/N
2019-09-18 14:29:17 EDT: ZS0TRG-1>BEACON: This is the Parys APRS digiPeater
2019-09-18 14:29:18 EDT: CQ0PCM-3>BEACON: APRS LOCAL ALTO ALENTEJO (REP)
< previous
User guide · FAQ · Blog · Discussion group · Linking to aprs.fi · AIS sites · Service status · Database statistics · Advertising on aprs.fi · Technical details · API · Change log · Planned changes · Credits and thanks · Terms Of Service · iPhone/iPad APRS